Time;durP1;ratioP1;P1;durP2;ratioP2;P2;SDS_P1;SDS_P2;PMS_P1;PMS_P2;Temp;Humidity;BMP_temperature;BMP_pressure;BME280_temperature;BME280_humidity;BME280_pressure;Samples;Min_cycle;Max_cycle;Signal;HPM_P1;HPM_P2
2023/04/22 00:01:29;;;;;;;9.32;5.93;;;;;;;13.82;66.77;99690.13;10193397;29;20044;-61
2023/04/22 00:06:30;;;;;;;11.45;6.07;;;;;;;13.80;66.87;99699.44;10191415;29;20060;-61
2023/04/22 00:11:32;;;;;;;8.18;4.88;;;;;;;13.67;67.13;99689.53;10199004;29;20040;-61
2023/04/22 00:16:33;;;;;;;7.82;5.00;;;;;;;13.71;66.71;99689.94;10193546;29;20219;-61
2023/04/22 00:21:35;;;;;;;8.13;4.97;;;;;;;13.76;66.82;99698.22;10197544;29;20283;-61
2023/04/22 00:26:36;;;;;;;9.20;5.47;;;;;;;13.68;66.86;99691.19;10193478;29;20306;-61
2023/04/22 00:31:38;;;;;;;9.98;5.40;;;;;;;13.63;67.02;99678.31;10192623;29;20037;-62
2023/04/22 00:36:39;;;;;;;9.23;6.07;;;;;;;13.74;66.80;99689.50;10192171;29;20060;-61
2023/04/22 00:41:41;;;;;;;8.60;5.00;;;;;;;13.75;66.72;99683.06;10191343;29;20060;-62
2023/04/22 00:46:43;;;;;;;7.93;4.72;;;;;;;13.70;67.14;99689.09;10197160;29;20045;-61
2023/04/22 00:51:45;;;;;;;8.25;4.97;;;;;;;13.71;67.28;99681.84;10185600;29;20096;-61
2023/04/22 00:56:46;;;;;;;8.70;5.00;;;;;;;13.73;67.12;99687.88;10195293;29;20055;-61
2023/04/22 01:01:47;;;;;;;6.18;4.20;;;;;;;13.75;67.17;99683.91;10204647;29;20036;-61
2023/04/22 01:06:50;;;;;;;7.68;4.60;;;;;;;13.76;66.79;99680.13;10202504;29;20032;-61
2023/04/22 01:11:52;;;;;;;6.90;4.78;;;;;;;13.73;67.05;99685.16;10199800;29;20075;-61
2023/04/22 01:16:54;;;;;;;7.57;4.35;;;;;;;13.71;67.04;99682.66;10198557;29;20040;-61
2023/04/22 01:21:58;;;;;;;6.32;4.65;;;;;;;13.68;67.60;99674.97;10199881;29;20055;-60
2023/04/22 01:26:59;;;;;;;7.88;4.45;;;;;;;13.67;67.27;99674.16;10200846;29;20036;-61
2023/04/22 01:32:02;;;;;;;8.13;4.53;;;;;;;13.67;67.25;99663.34;10202872;29;20072;-61
2023/04/22 01:37:04;;;;;;;5.25;3.47;;;;;;;13.63;67.33;99672.09;10196631;29;20036;-61
2023/04/22 01:42:06;;;;;;;6.65;3.72;;;;;;;13.60;67.46;99664.41;10200894;29;20063;-61
2023/04/22 01:47:07;;;;;;;6.10;3.70;;;;;;;13.49;67.66;99665.91;10199353;29;20060;-61
2023/04/22 01:52:09;;;;;;;4.15;3.35;;;;;;;13.31;68.08;99676.53;10196376;29;20051;-61
2023/04/22 01:57:12;;;;;;;3.92;2.40;;;;;;;13.38;67.74;99680.06;10195276;29;20052;-61
2023/04/22 02:02:14;;;;;;;2.90;2.28;;;;;;;13.44;67.38;99688.13;10195881;29;20049;-61
2023/04/22 02:07:16;;;;;;;4.10;2.65;;;;;;;13.49;67.55;99690.22;10197336;29;20063;-61
2023/04/22 02:12:17;;;;;;;4.45;3.03;;;;;;;13.47;67.54;99660.72;10200788;29;20072;-61
2023/04/22 02:17:18;;;;;;;6.05;2.78;;;;;;;13.42;67.46;99654.28;10198136;29;20040;-61
2023/04/22 02:22:22;;;;;;;4.78;3.22;;;;;;;13.37;67.77;99664.88;10206916;29;20296;-61
2023/04/22 02:27:23;;;;;;;6.38;3.78;;;;;;;13.33;67.91;99683.41;10195274;29;20040;-61
2023/04/22 02:32:25;;;;;;;4.95;3.17;;;;;;;13.34;67.74;99676.13;10189138;29;20627;-62
2023/04/22 02:37:26;;;;;;;6.95;3.55;;;;;;;13.42;67.33;99675.88;10199094;29;20035;-61
2023/04/22 02:42:28;;;;;;;5.60;3.22;;;;;;;13.45;67.57;99678.19;10193491;29;20036;-61
2023/04/22 02:47:29;;;;;;;5.72;3.97;;;;;;;13.43;67.46;99675.69;10194393;29;20064;-61
2023/04/22 02:52:32;;;;;;;5.90;3.40;;;;;;;13.44;67.70;99688.13;10193393;29;20047;-61
2023/04/22 02:57:34;;;;;;;4.35;3.90;;;;;;;13.42;67.77;99684.00;10196332;29;20092;-61
2023/04/22 03:02:35;;;;;;;7.72;3.63;;;;;;;13.37;67.88;99684.63;10196370;29;20040;-61
2023/04/22 03:07:37;;;;;;;7.05;4.32;;;;;;;13.38;67.90;99677.34;10193222;29;20048;-62
2023/04/22 03:12:38;;;;;;;6.03;4.25;;;;;;;13.38;67.85;99677.34;10196976;29;20067;-61
2023/04/22 03:17:39;;;;;;;7.78;4.10;;;;;;;13.20;68.40;99676.09;10195005;29;20137;-62
2023/04/22 03:22:41;;;;;;;5.97;4.15;;;;;;;13.19;68.22;99674.47;10194459;29;20045;-61
2023/04/22 03:27:42;;;;;;;5.40;3.67;;;;;;;13.07;68.39;99685.06;10192152;29;20047;-61
2023/04/22 03:32:44;;;;;;;6.00;3.90;;;;;;;13.04;68.61;99690.84;10193263;29;20043;-62
2023/04/22 03:37:45;;;;;;;5.72;3.63;;;;;;;12.82;68.87;99687.53;10196180;29;20032;-62
2023/04/22 03:42:46;;;;;;;8.10;3.60;;;;;;;12.83;68.87;99691.88;10197142;29;20048;-62
2023/04/22 03:47:48;;;;;;;8.50;4.50;;;;;;;12.86;68.48;99690.66;10196688;29;20062;-61
2023/04/22 03:52:50;;;;;;;5.88;4.15;;;;;;;12.96;68.33;99682.16;10191989;29;20028;-61
2023/04/22 03:57:51;;;;;;;6.75;3.95;;;;;;;12.97;68.60;99684.63;10196474;29;20049;-61
2023/04/22 04:02:53;;;;;;;7.65;4.05;;;;;;;13.00;68.55;99686.09;10193719;29;20053;-61
2023/04/22 04:07:55;;;;;;;5.90;4.15;;;;;;;12.98;68.41;99686.28;10191947;29;20029;-61
2023/04/22 04:12:57;;;;;;;6.97;3.75;;;;;;;12.90;68.44;99694.59;10197772;28;20037;-61
2023/04/22 04:18:00;;;;;;;8.73;4.22;;;;;;;12.75;69.20;99693.97;10185551;29;20663;-64
2023/04/22 04:23:01;;;;;;;7.85;4.68;;;;;;;12.71;68.94;99690.84;10160797;29;20080;-64
2023/04/22 04:28:10;;;;;;;6.95;4.68;;;;;;;12.66;69.02;99701.44;10154547;29;20092;-65
2023/04/22 04:33:11;;;;;;;6.50;3.92;;;;;;;12.72;69.06;99692.53;10157671;29;20527;-65
2023/04/22 04:38:13;;;;;;;5.72;3.88;;;;;;;12.74;69.01;99682.34;10154506;29;20053;-65
2023/04/22 04:43:14;;;;;;;5.47;3.78;;;;;;;12.69;68.78;99680.25;10163978;29;20083;-63
2023/04/22 04:48:18;;;;;;;4.90;3.75;;;;;;;12.69;69.12;99669.47;10173692;29;20049;-64
2023/04/22 04:53:21;;;;;;;9.73;3.38;;;;;;;12.65;68.73;99679.00;10168373;29;20049;-64
2023/04/22 04:58:22;;;;;;;3.65;2.10;;;;;;;12.56;69.40;99676.72;10170062;29;20051;-63
2023/04/22 05:03:24;;;;;;;4.25;2.30;;;;;;;12.59;69.42;99670.94;10170790;29;20080;-65
2023/04/22 05:08:25;;;;;;;4.82;2.35;;;;;;;12.59;69.74;99665.53;10169276;29;20060;-63
2023/04/22 05:13:27;;;;;;;3.75;2.08;;;;;;;12.73;69.13;99666.38;10168979;29;20107;-62
2023/04/22 05:18:28;;;;;;;6.95;2.35;;;;;;;12.65;69.18;99665.53;10171115;29;20059;-64
2023/04/22 05:23:29;;;;;;;2.70;2.20;;;;;;;12.66;69.76;99671.78;10175014;29;20051;-62
2023/04/22 05:28:31;;;;;;;3.10;2.03;;;;;;;12.85;69.05;99664.72;10172257;29;20420;-63
2023/04/22 05:33:32;;;;;;;7.13;2.15;;;;;;;12.94;68.95;99668.06;10170572;29;20052;-65
2023/04/22 05:38:33;;;;;;;3.53;2.60;;;;;;;13.04;68.47;99665.75;10162992;29;20048;-63
2023/04/22 05:43:35;;;;;;;4.30;2.67;;;;;;;13.11;68.08;99680.03;10165647;29;20044;-65
2023/04/22 05:48:36;;;;;;;5.68;3.55;;;;;;;13.07;68.33;99685.06;10159335;29;20059;-62
2023/04/22 05:53:38;;;;;;;4.25;2.13;;;;;;;13.05;68.86;99694.38;10146499;29;20052;-62
2023/04/22 05:58:39;;;;;;;2.30;1.80;;;;;;;13.03;68.62;99696.44;10147166;29;20071;-63
2023/04/22 06:03:40;;;;;;;2.47;1.85;;;;;;;12.98;69.01;99686.28;10141473;29;20052;-62
2023/04/22 06:08:42;;;;;;;2.50;2.13;;;;;;;13.00;68.92;99695.00;10142932;29;20048;-62
2023/04/22 06:13:44;;;;;;;2.85;1.65;;;;;;;13.01;69.15;99683.19;10145180;29;20163;-62
2023/04/22 06:18:45;;;;;;;5.35;1.80;;;;;;;13.18;68.68;99682.75;10141373;29;20091;-63
2023/04/22 06:23:46;;;;;;;4.90;2.60;;;;;;;13.38;68.55;99686.28;10144834;29;20123;-62
2023/04/22 06:28:48;;;;;;;7.05;1.73;;;;;;;13.58;68.62;99691.63;10139507;29;20075;-60
2023/04/22 06:33:49;;;;;;;3.28;1.80;;;;;;;13.79;68.15;99693.22;10150262;29;20527;-61
2023/04/22 06:38:51;;;;;;;1.83;1.50;;;;;;;14.00;67.85;99686.72;10150030;29;20048;-61
2023/04/22 06:43:52;;;;;;;4.13;1.90;;;;;;;14.24;67.47;99685.13;10148743;29;20071;-61
2023/04/22 06:48:53;;;;;;;2.22;1.42;;;;;;;14.42;66.82;99683.56;10150920;29;20115;-61
2023/04/22 06:53:57;;;;;;;2.70;2.20;;;;;;;14.67;66.85;99692.59;10143302;29;20075;-61
2023/04/22 06:58:58;;;;;;;4.28;2.13;;;;;;;15.00;66.03;99686.06;10145893;29;20567;-60
2023/04/22 07:03:59;;;;;;;3.25;1.45;;;;;;;15.34;65.51;99664.09;10146141;29;20056;-60
2023/04/22 07:09:01;;;;;;;2.45;1.38;;;;;;;15.60;64.96;99661.13;10149081;29;20111;-60
2023/04/22 07:14:02;;;;;;;1.98;1.10;;;;;;;15.81;64.36;99675.28;10146079;29;20081;-60
2023/04/22 07:19:05;;;;;;;2.10;1.40;;;;;;;16.03;63.69;99679.19;10136947;29;20143;-60
2023/04/22 07:24:10;;;;;;;2.75;1.25;;;;;;;16.24;62.91;99679.75;10137612;29;20053;-60
2023/04/22 07:29:12;;;;;;;2.92;1.13;;;;;;;16.42;62.54;99660.69;10139478;29;20496;-60
2023/04/22 07:34:13;;;;;;;4.28;1.60;;;;;;;16.57;61.97;99668.41;10145895;29;20131;-61
2023/04/22 07:39:15;;;;;;;6.18;1.58;;;;;;;16.62;61.52;99668.53;10144993;29;20048;-60
2023/04/22 07:44:20;;;;;;;2.75;1.70;;;;;;;16.75;61.46;99666.69;10143400;29;20116;-60
2023/04/22 07:49:21;;;;;;;4.68;1.80;;;;;;;16.91;60.82;99666.03;10142019;29;20048;-60
2023/04/22 07:54:22;;;;;;;4.97;2.53;;;;;;;17.01;60.70;99663.53;10137719;29;20060;-61
2023/04/22 07:59:24;;;;;;;7.93;2.22;;;;;;;17.19;60.62;99657.16;10144788;29;20524;-60
2023/04/22 08:04:25;;;;;;;1.92;1.73;;;;;;;17.39;60.02;99648.66;10146138;29;20512;-61
2023/04/22 08:09:27;;;;;;;2.22;1.85;;;;;;;17.63;59.68;99659.47;10147637;29;20049;-60
2023/04/22 08:14:28;;;;;;;3.00;2.25;;;;;;;17.85;59.11;99654.25;10144577;29;20120;-61
2023/04/22 08:19:30;;;;;;;3.45;2.13;;;;;;;18.04;59.13;99650.28;10145253;29;20059;-60
2023/04/22 08:24:31;;;;;;;4.70;2.05;;;;;;;18.25;58.41;99645.25;10152464;29;20049;-59
2023/04/22 08:29:33;;;;;;;6.45;3.75;;;;;;;18.55;57.82;99647.69;10148115;29;20056;-57
2023/04/22 08:34:35;;;;;;;4.00;1.77;;;;;;;18.76;57.36;99642.56;10150305;29;20060;-58
2023/04/22 08:39:37;;;;;;;2.92;1.60;;;;;;;18.94;56.75;99642.38;10145346;29;20922;-58
2023/04/22 08:44:40;;;;;;;3.20;1.70;;;;;;;19.08;56.22;99642.84;10145171;29;20041;-57
2023/04/22 08:49:42;;;;;;;4.38;1.67;;;;;;;19.31;55.48;99633.66;10147686;29;20090;-58
2023/04/22 08:54:44;;;;;;;4.22;1.95;;;;;;;19.39;55.19;99629.63;10143303;29;20121;-57
2023/04/22 08:59:48;;;;;;;1.63;1.30;;;;;;;19.59;54.21;99640.84;10148489;29;20052;-58
2023/04/22 09:04:52;;;;;;;2.60;2.00;;;;;;;19.80;53.33;99627.47;10146651;29;20154;-60
2023/04/22 09:09:55;;;;;;;1.50;1.33;;;;;;;20.04;52.54;99624.47;10131758;29;20067;-60
2023/04/22 09:14:57;;;;;;;4.20;1.90;;;;;;;20.23;52.10;99619.47;10150476;29;20120;-59
2023/04/22 09:20:00;;;;;;;3.53;1.40;;;;;;;20.43;51.40;99616.94;10156079;29;20184;-59
2023/04/22 09:25:06;;;;;;;1.70;1.35;;;;;;;20.75;50.29;99619.72;10160043;29;20048;-61
2023/04/22 09:30:08;;;;;;;2.67;1.67;;;;;;;21.05;49.03;99628.38;10152090;29;20068;-59
2023/04/22 09:35:10;;;;;;;6.30;1.65;;;;;;;21.31;48.59;99632.13;10156237;29;20048;-58
2023/04/22 09:40:14;;;;;;;3.95;1.60;;;;;;;21.29;48.21;99623.34;10156961;29;20039;-56
2023/04/22 09:45:33;;;;;;;4.20;1.50;;;;;;;21.34;47.20;99628.84;10160289;29;20064;-58
2023/04/22 09:50:41;;;;;;;2.17;1.15;;;;;;;21.28;46.53;99638.91;10158315;29;20070;-58
2023/04/22 09:55:49;;;;;;;1.67;1.02;;;;;;;21.37;46.28;99625.59;10158247;29;20049;-57
2023/04/22 10:00:53;;;;;;;2.28;1.30;;;;;;;21.71;45.73;99614.28;10175040;29;20059;-60
2023/04/22 10:05:56;;;;;;;5.00;1.23;;;;;;;21.73;44.85;99612.91;10161233;29;20439;-61
2023/04/22 10:10:57;;;;;;;2.90;0.95;;;;;;;21.98;44.40;99608.63;10150770;29;20094;-59
2023/04/22 10:15:59;;;;;;;0.80;0.75;;;;;;;22.11;44.50;99594.41;10147005;29;20119;-59
2023/04/22 10:21:01;;;;;;;4.40;1.20;;;;;;;22.45;43.82;99606.78;10153863;29;20072;-59
2023/04/22 10:26:04;;;;;;;2.03;0.98;;;;;;;22.88;43.46;99605.41;10149690;29;20444;-60
2023/04/22 10:31:05;;;;;;;1.38;1.08;;;;;;;23.28;42.78;99589.19;10148462;29;20098;-61
2023/04/22 10:36:13;;;;;;;1.63;1.08;;;;;;;23.55;42.56;99581.41;10145701;29;20152;-63
2023/04/22 10:41:15;;;;;;;2.80;0.90;;;;;;;24.02;42.02;99581.19;10140842;29;20689;-63
2023/04/22 10:46:29;;;;;;;1.98;0.90;;;;;;;24.33;40.74;99573.56;10147328;29;20131;-63
2023/04/22 10:51:47;;;;;;;1.67;0.88;;;;;;;24.80;40.18;99568.50;10143629;29;20072;-63
2023/04/22 10:57:10;;;;;;;1.40;1.08;;;;;;;25.12;39.29;99552.22;10149262;29;20079;-63
2023/04/22 11:02:14;;;;;;;1.75;1.00;;;;;;;25.28;39.19;99552.91;10140945;29;20041;-64
2023/04/22 11:07:29;;;;;;;2.78;0.90;;;;;;;25.56;39.21;99555.84;10142415;29;20534;-64
2023/04/22 11:12:33;;;;;;;3.63;0.88;;;;;;;25.46;39.12;99550.50;10146200;29;20091;-64
2023/04/22 11:17:41;;;;;;;1.00;0.80;;;;;;;25.62;37.80;99546.41;10138957;29;20077;-64
2023/04/22 11:22:45;;;;;;;1.67;0.98;;;;;;;25.58;38.69;99534.34;10144518;29;20060;-64
2023/04/22 11:27:46;;;;;;;3.28;0.98;;;;;;;25.61;38.05;99536.53;10233808;23;20051;-64
2023/04/22 11:32:51;;;;;;;3.30;0.80;;;;;;;25.48;37.76;99524.31;10277619;28;20137;-64
2023/04/22 11:37:55;;;;;;;0.85;0.40;;;;;;;25.78;35.77;99516.72;10276413;28;20421;-63
2023/04/22 11:42:58;;;;;;;2.63;0.80;;;;;;;25.78;35.23;99510.41;10289910;28;21648;-61
2023/04/22 11:48:01;;;;;;;2.97;0.80;;;;;;;25.83;34.34;99502.06;10287812;28;20066;-60
2023/04/22 11:53:22;;;;;;;1.88;0.52;;;;;;;25.80;34.10;99506.22;10305844;28;20248;-59
2023/04/22 11:58:26;;;;;;;1.00;0.50;;;;;;;26.02;32.86;99502.09;10305998;28;20057;-59
2023/04/22 12:03:29;;;;;;;1.23;0.47;;;;;;;26.05;32.82;99491.28;10295243;28;20155;-59
2023/04/22 12:08:38;;;;;;;0.77;0.40;;;;;;;26.19;31.83;99487.78;10283620;28;20077;-59
2023/04/22 12:13:42;;;;;;;0.80;0.40;;;;;;;26.14;31.52;99482.34;10306145;28;20060;-59
2023/04/22 12:18:46;;;;;;;0.63;0.40;;;;;;;26.30;30.40;99489.22;10299418;28;20077;-58
2023/04/22 12:23:53;;;;;;;2.83;0.60;;;;;;;26.30;30.62;99484.53;10310287;28;20047;-58
2023/04/22 12:28:57;;;;;;;2.50;0.40;;;;;;;26.43;29.75;99482.13;10307866;23;20051;-59
2023/04/22 12:33:59;;;;;;;1.80;0.50;;;;;;;26.37;30.68;99477.81;10245238;28;20043;-59
2023/04/22 12:39:02;;;;;;;1.27;0.35;;;;;;;26.63;29.63;99484.53;10246642;28;20099;-61
2023/04/22 12:44:04;;;;;;;4.35;0.50;;;;;;;26.87;29.43;99476.06;10221448;28;20075;-61
2023/04/22 12:49:05;;;;;;;1.67;0.40;;;;;;;27.10;28.74;99471.47;10217082;28;20075;-62
2023/04/22 12:54:06;;;;;;;2.63;0.50;;;;;;;27.21;28.06;99471.22;10236945;28;20470;-62
2023/04/22 12:59:08;;;;;;;1.83;0.40;;;;;;;26.92;28.51;99477.91;10231573;28;20165;-62
2023/04/22 13:04:09;;;;;;;2.85;0.50;;;;;;;26.74;28.35;99473.28;10233833;28;20075;-62
2023/04/22 13:09:11;;;;;;;3.15;0.45;;;;;;;26.71;28.54;99478.28;10232569;28;20524;-62
2023/04/22 13:14:13;;;;;;;2.08;0.40;;;;;;;26.59;28.40;99472.47;10233994;28;20176;-62
2023/04/22 13:19:15;;;;;;;4.68;0.80;;;;;;;26.43;29.42;99480.16;10214819;28;20066;-62
2023/04/22 13:24:16;;;;;;;1.83;0.52;;;;;;;25.97;29.06;99467.19;10232523;28;20103;-62
2023/04/22 13:29:17;;;;;;;3.58;0.60;;;;;;;25.77;29.71;99470.22;10188682;28;20059;-62
2023/04/22 13:34:19;;;;;;;3.55;0.60;;;;;;;25.46;29.98;99477.00;10189994;29;20079;-62
2023/04/22 13:39:21;;;;;;;1.83;0.50;;;;;;;25.28;30.29;99475.06;10189888;29;20044;-62
2023/04/22 13:44:22;;;;;;;2.08;0.50;;;;;;;24.92;30.91;99470.78;10197171;29;20043;-62
2023/04/22 13:49:25;;;;;;;0.85;0.50;;;;;;;24.60;31.25;99478.84;10193450;29;20317;-62
2023/04/22 13:54:27;;;;;;;3.08;0.60;;;;;;;24.37;31.68;99475.75;10189569;29;20055;-62
2023/04/22 13:59:30;;;;;;;1.48;0.50;;;;;;;24.13;31.98;99475.66;10187870;29;20056;-62
2023/04/22 14:04:32;;;;;;;1.10;0.60;;;;;;;23.94;32.09;99470.06;10189832;29;20044;-62
2023/04/22 14:09:33;;;;;;;3.08;0.60;;;;;;;23.73;32.58;99461.91;10182347;29;20044;-62
2023/04/22 14:14:35;;;;;;;5.07;0.50;;;;;;;23.66;32.79;99468.88;10188642;29;20112;-62
2023/04/22 14:19:37;;;;;;;3.30;0.82;;;;;;;23.44;33.37;99470.09;10186434;29;20058;-62
2023/04/22 14:29:45;;;;;;;4.50;1.60;;;;;;;23.24;33.63;99481.16;10163547;29;20124;-63
2023/04/22 14:34:47;;;;;;;3.22;0.57;;;;;;;23.02;33.99;99489.72;10150756;29;20052;-62
2023/04/22 14:39:49;;;;;;;1.58;0.40;;;;;;;22.72;34.32;99496.94;10161005;29;20071;-62
2023/04/22 14:44:50;;;;;;;2.65;0.50;;;;;;;22.44;34.16;99498.34;10163967;29;20076;-63
2023/04/22 14:49:51;;;;;;;5.13;0.88;;;;;;;22.32;34.53;99509.59;10168086;29;20059;-63
2023/04/22 14:54:53;;;;;;;0.85;0.50;;;;;;;21.95;35.25;99516.09;10171163;29;20044;-63
2023/04/22 14:59:54;;;;;;;1.08;0.47;;;;;;;22.02;35.37;99519.41;10162701;29;20104;-64
2023/04/22 15:04:55;;;;;;;1.70;0.50;;;;;;;22.24;35.61;99504.63;10165185;29;20451;-63
2023/04/22 15:09:57;;;;;;;1.98;0.60;;;;;;;22.36;35.38;99506.00;10164158;29;20048;-64
2023/04/22 15:14:58;;;;;;;3.22;0.50;;;;;;;22.48;35.61;99496.69;10160505;29;20335;-63
2023/04/22 15:20:03;;;;;;;3.88;0.52;;;;;;;22.56;35.68;99494.22;10161005;29;20083;-63
2023/04/22 15:25:07;;;;;;;1.05;0.50;;;;;;;22.84;35.01;99488.41;10155052;29;20056;-63
2023/04/22 15:30:12;;;;;;;1.02;0.50;;;;;;;22.82;35.04;99488.66;10159393;29;20107;-64
2023/04/22 15:35:13;;;;;;;2.70;0.50;;;;;;;22.95;34.81;99488.09;10158756;29;20079;-64
2023/04/22 15:40:23;;;;;;;3.42;0.50;;;;;;;22.96;35.38;99494.38;10463905;27;20373;-63
2023/04/22 15:45:25;;;;;;;1.85;0.55;;;;;;;22.93;35.51;99490.28;10413180;28;20045;-62
2023/04/22 15:50:26;;;;;;;1.15;0.57;;;;;;;22.86;35.87;99494.41;10404640;28;20527;-63
2023/04/22 15:55:28;;;;;;;2.28;0.50;;;;;;;22.86;36.00;99494.41;10418401;28;20064;-64
2023/04/22 16:00:29;;;;;;;2.90;0.80;;;;;;;23.17;36.26;99489.69;10418360;28;20053;-61
2023/04/22 16:05:30;;;;;;;2.75;0.50;;;;;;;23.23;36.13;99495.97;10416259;28;20110;-62
2023/04/22 16:10:32;;;;;;;2.40;0.60;;;;;;;22.91;36.97;99494.41;10415675;28;20042;-63
2023/04/22 16:15:33;;;;;;;1.67;0.70;;;;;;;22.49;37.04;99492.84;10419932;28;20049;-64
2023/04/22 16:20:35;;;;;;;2.05;0.40;;;;;;;22.45;37.20;99489.03;10411103;28;20476;-64
2023/04/22 16:25:37;;;;;;;3.42;0.73;;;;;;;22.26;37.70;99495.06;10409509;28;20146;-63
2023/04/22 16:30:38;;;;;;;1.20;0.60;;;;;;;21.94;38.48;99482.44;10446170;28;20106;-62
2023/04/22 16:35:40;;;;;;;2.25;0.50;;;;;;;21.71;38.36;99477.50;10449763;28;20068;-63
2023/04/22 16:40:41;;;;;;;1.83;0.40;;;;;;;21.65;38.73;99489.53;10451328;28;20052;-62
2023/04/22 16:45:43;;;;;;;4.50;0.60;;;;;;;21.45;39.06;99479.34;10456580;28;20478;-64
2023/04/22 16:50:44;;;;;;;2.42;0.50;;;;;;;21.22;39.74;99467.75;10436215;28;20094;-63
2023/04/22 16:55:46;;;;;;;2.10;0.50;;;;;;;21.08;40.09;99475.63;10434640;28;20577;-62
2023/04/22 17:00:47;;;;;;;1.65;0.50;;;;;;;21.16;39.50;99468.84;10432868;28;20061;-61
2023/04/22 17:05:48;;;;;;;0.82;0.47;;;;;;;21.13;39.86;99472.09;10432283;28;20119;-61
2023/04/22 17:10:51;;;;;;;2.78;0.60;;;;;;;21.08;39.91;99469.34;10425017;28;20115;-62
2023/04/22 17:15:52;;;;;;;1.65;0.40;;;;;;;21.09;39.82;99469.09;10427498;28;20103;-63
2023/04/22 17:20:54;;;;;;;3.30;0.82;;;;;;;21.04;40.32;99474.53;10429704;28;20053;-63
2023/04/22 17:25:56;;;;;;;2.60;0.50;;;;;;;21.11;40.54;99480.56;10428721;22;20049;-63
2023/04/22 17:30:57;;;;;;;3.50;0.60;;;;;;;20.91;40.60;99489.50;10346025;28;20101;-63
2023/04/22 17:35:58;;;;;;;7.18;1.23;;;;;;;20.87;40.79;99482.91;10321962;28;20478;-61
2023/04/22 17:41:00;;;;;;;2.47;0.80;;;;;;;20.80;41.55;99480.41;10324220;28;20061;-61
2023/04/22 17:46:01;;;;;;;1.13;0.45;;;;;;;20.81;41.08;99478.50;10334420;28;20062;-62
2023/04/22 17:51:06;;;;;;;2.45;0.80;;;;;;;20.67;41.56;99486.34;10311234;28;20059;-62
2023/04/22 17:56:08;;;;;;;2.78;0.88;;;;;;;20.60;42.07;99489.31;10327418;28;20121;-62
2023/04/22 18:01:10;;;;;;;2.00;0.65;;;;;;;20.52;42.04;99497.97;10328817;28;20081;-62
2023/04/22 18:06:11;;;;;;;3.10;1.02;;;;;;;20.39;42.61;99504.69;10333563;28;20556;-62
2023/04/22 18:11:13;;;;;;;2.25;0.82;;;;;;;20.33;42.58;99507.66;10342748;28;20570;-62
2023/04/22 18:16:14;;;;;;;3.47;1.00;;;;;;;20.26;42.87;99507.03;10347351;28;20034;-60
2023/04/22 18:21:15;;;;;;;2.75;0.80;;;;;;;20.17;43.10;99507.53;10348885;28;20050;-62
2023/04/22 18:26:17;;;;;;;3.42;0.60;;;;;;;20.09;43.53;99508.00;10340480;28;20043;-62
2023/04/22 18:31:19;;;;;;;5.57;2.25;;;;;;;20.01;43.57;99520.22;10333912;28;20090;-60
2023/04/22 18:36:21;;;;;;;1.85;0.65;;;;;;;19.91;44.01;99520.13;10334016;28;20046;-60
2023/04/22 18:41:24;;;;;;;3.28;0.68;;;;;;;19.92;43.92;99523.69;10315487;28;20054;-59
2023/04/22 18:46:25;;;;;;;2.08;0.70;;;;;;;19.77;44.32;99527.09;10330349;28;20050;-60
2023/04/22 18:51:28;;;;;;;3.72;0.65;;;;;;;19.66;44.63;99534.28;10331539;28;20037;-60
2023/04/22 18:56:31;;;;;;;2.28;1.23;;;;;;;19.59;44.83;99544.59;10328848;28;20042;-59
2023/04/22 19:01:34;;;;;;;1.73;0.82;;;;;;;19.39;45.78;99550.59;10327195;28;20378;-59
2023/04/22 19:06:35;;;;;;;1.73;0.82;;;;;;;19.13;47.00;99558.44;10328602;28;20061;-60
2023/04/22 19:11:37;;;;;;;1.50;0.55;;;;;;;18.86;48.36;99569.25;10328625;28;20042;-59
2023/04/22 19:16:39;;;;;;;1.13;0.50;;;;;;;18.71;49.23;99574.44;10329473;28;20050;-60
2023/04/22 19:21:40;;;;;;;1.85;0.50;;;;;;;18.69;49.51;99574.69;10316634;28;20051;-59
2023/04/22 19:26:41;;;;;;;0.70;0.55;;;;;;;18.32;50.88;99583.31;10334221;28;20081;-59
2023/04/22 19:31:43;;;;;;;2.58;0.70;;;;;;;18.31;51.25;99575.44;10318744;28;20046;-58
2023/04/22 19:36:44;;;;;;;2.20;0.60;;;;;;;18.07;52.12;99583.72;10321098;28;20077;-59
2023/04/22 19:41:46;;;;;;;2.33;0.75;;;;;;;18.16;52.03;99581.41;10319366;28;20058;-58
2023/04/22 19:46:47;;;;;;;1.75;0.70;;;;;;;17.96;52.90;99576.44;10339067;28;20072;-61
2023/04/22 19:51:50;;;;;;;2.03;0.70;;;;;;;17.93;53.16;99572.31;10329625;28;20042;-60
2023/04/22 19:56:52;;;;;;;1.67;0.90;;;;;;;17.88;53.44;99572.22;10316664;28;20105;-60
2023/04/22 20:01:53;;;;;;;5.05;0.93;;;;;;;17.86;53.64;99579.78;10341549;28;20046;-60
2023/04/22 20:06:56;;;;;;;3.35;1.02;;;;;;;17.85;54.11;99578.13;10345639;28;20049;-59
2023/04/22 20:11:58;;;;;;;2.78;1.08;;;;;;;17.87;54.08;99586.88;10333435;28;20073;-60
2023/04/22 20:16:59;;;;;;;5.38;1.23;;;;;;;17.82;54.48;99584.03;10339578;28;20049;-60
2023/04/22 20:22:02;;;;;;;2.63;1.10;;;;;;;17.70;55.07;99578.63;10338543;28;20042;-59
2023/04/22 20:27:05;;;;;;;2.70;0.90;;;;;;;17.62;55.32;99579.84;10345987;28;20068;-60
2023/04/22 20:32:08;;;;;;;2.22;1.02;;;;;;;17.54;55.76;99579.41;10345658;28;20485;-60
2023/04/22 20:37:11;;;;;;;4.80;0.98;;;;;;;17.57;55.79;99579.72;10336687;28;20041;-60
2023/04/22 20:42:13;;;;;;;2.67;0.80;;;;;;;17.55;55.82;99590.00;10340774;28;20049;-59
2023/04/22 20:47:15;;;;;;;2.80;0.88;;;;;;;17.56;55.97;99590.84;10346178;28;20054;-60
2023/04/22 20:52:16;;;;;;;1.85;0.88;;;;;;;17.52;56.22;99590.50;10347628;28;20071;-59
2023/04/22 20:57:18;;;;;;;3.00;0.68;;;;;;;17.42;56.69;99587.59;10347713;28;20080;-59
2023/04/22 21:02:20;;;;;;;2.42;1.00;;;;;;;17.26;57.19;99597.31;10344208;28;20074;-59
2023/04/22 21:07:23;;;;;;;3.40;1.35;;;;;;;17.03;58.44;99592.72;10343678;28;20043;-58
2023/04/22 21:12:26;;;;;;;3.45;1.55;;;;;;;16.88;59.07;99593.19;10341587;28;20085;-58
2023/04/22 21:17:31;;;;;;;1.65;1.02;;;;;;;16.87;59.08;99593.44;10329108;28;20046;-58
2023/04/22 21:22:33;;;;;;;1.50;0.88;;;;;;;16.81;59.44;99590.59;10334571;28;20493;-60
2023/04/22 21:27:34;;;;;;;3.00;1.17;;;;;;;16.73;59.83;99595.53;10339376;28;20046;-58
2023/04/22 21:32:39;;;;;;;3.90;1.30;;;;;;;16.70;60.60;99598.69;10338328;28;20054;-58
2023/04/22 21:37:40;;;;;;;4.00;1.30;;;;;;;16.69;60.63;99597.06;10347990;28;20136;-57
2023/04/22 21:42:42;;;;;;;3.05;1.35;;;;;;;16.72;61.01;99602.81;10361193;28;20499;-57
2023/04/22 21:47:43;;;;;;;2.58;1.10;;;;;;;16.51;61.62;99611.53;10349673;28;20066;-58
2023/04/22 21:52:45;;;;;;;1.67;1.48;;;;;;;16.47;61.94;99616.59;10358543;28;20117;-59
2023/04/22 21:57:46;;;;;;;3.70;1.67;;;;;;;16.46;62.29;99604.09;10348553;28;20224;-58
2023/04/22 22:02:47;;;;;;;3.95;1.52;;;;;;;16.39;62.60;99601.50;10345449;28;20077;-57
2023/04/22 22:07:49;;;;;;;4.20;2.13;;;;;;;16.38;62.88;99607.16;10337324;28;20038;-59
2023/04/22 22:12:50;;;;;;;4.22;2.35;;;;;;;16.51;62.92;99606.09;10345761;28;20042;-58
2023/04/22 22:17:52;;;;;;;4.25;2.25;;;;;;;16.46;63.19;99604.09;10355957;28;20038;-59
2023/04/22 22:22:53;;;;;;;7.85;3.20;;;;;;;16.34;63.65;99600.53;10345231;28;20085;-59
2023/04/22 22:27:55;;;;;;;6.88;2.85;;;;;;;16.37;63.83;99600.91;10340076;28;20132;-60
2023/04/22 22:32:56;;;;;;;8.95;3.00;;;;;;;16.29;64.27;99609.38;10342944;28;20038;-57
2023/04/22 22:37:58;;;;;;;8.15;2.78;;;;;;;16.15;64.87;99602.47;10343882;28;20125;-58
2023/04/22 22:42:59;;;;;;;4.70;2.58;;;;;;;16.13;64.87;99604.59;10342132;28;20045;-59
2023/04/22 22:48:01;;;;;;;5.30;2.80;;;;;;;16.10;65.00;99607.78;10335152;28;20065;-59
2023/04/22 22:53:02;;;;;;;8.82;2.95;;;;;;;16.12;65.40;99606.47;10338787;28;20069;-59
2023/04/22 22:58:03;;;;;;;5.80;2.58;;;;;;;16.09;65.37;99612.34;10343202;28;20061;-59
2023/04/22 23:03:05;;;;;;;5.65;3.28;;;;;;;15.91;65.97;99602.38;10313656;28;20042;-59
2023/04/22 23:08:07;;;;;;;3.90;3.28;;;;;;;15.95;66.01;99613.59;10345076;28;20038;-59
2023/04/22 23:13:08;;;;;;;4.22;3.00;;;;;;;15.87;66.09;99601.19;10337454;28;20053;-58
2023/04/22 23:18:12;;;;;;;5.53;3.08;;;;;;;15.80;66.52;99600.47;10323546;28;20073;-58
2023/04/22 23:23:17;;;;;;;5.10;3.03;;;;;;;15.78;66.76;99595.28;10350334;28;20054;-60
2023/04/22 23:28:19;;;;;;;4.15;3.08;;;;;;;15.63;67.09;99590.22;10327183;28;20115;-58